createdAt,value
2022-09-22T00:01:42.819Z,98925.13
2022-09-22T00:04:13.258Z,98934.25
2022-09-22T00:06:48.547Z,98936.38
2022-09-22T00:09:21.063Z,98927.22
2022-09-22T00:11:53.985Z,98920.84
2022-09-22T00:14:26.714Z,98943.25
2022-09-22T00:17:01.183Z,98935.72
2022-09-22T00:19:36.178Z,98929.69
2022-09-22T00:22:07.862Z,98929.19
2022-09-22T00:24:35.007Z,98935.25
2022-09-22T00:27:02.231Z,98921.97
2022-09-22T00:29:39.723Z,98928.16
2022-09-22T00:32:07.547Z,98919.63
2022-09-22T00:34:37.198Z,98903.78
2022-09-22T00:37:03.951Z,98927.16
2022-09-22T00:39:31.839Z,98929.88
2022-09-22T00:42:01.067Z,98931.22
2022-09-22T00:44:36.013Z,98916.19
2022-09-22T00:47:32.121Z,98925.97
2022-09-22T00:50:16.639Z,98928.25
2022-09-22T00:52:56.249Z,98917.47
2022-09-22T00:55:40.777Z,98913.38
2022-09-22T00:58:16.777Z,98908.94
2022-09-22T01:00:47.760Z,98919.88
2022-09-22T01:03:23.157Z,98916.09
2022-09-22T01:05:58.500Z,98919.97
2022-09-22T01:08:31.382Z,98913.94
2022-09-22T01:10:59.419Z,98886.97
2022-09-22T01:13:32.233Z,98897.69
2022-09-22T01:16:23.308Z,98909.59
2022-09-22T01:19:14.043Z,98914.38
2022-09-22T01:21:51.296Z,98913.88
2022-09-22T01:24:42.435Z,98898.59
2022-09-22T01:27:53.259Z,98906.31
2022-09-22T01:30:24.580Z,98901.75
2022-09-22T01:33:17.485Z,98895.06
2022-09-22T01:36:30.430Z,98903.59
2022-09-22T01:39:26.052Z,98894.63
2022-09-22T01:42:07.521Z,98897.53
2022-09-22T01:44:53.107Z,98897.84
2022-09-22T01:47:28.289Z,98905.41
2022-09-22T01:50:07.694Z,98903.94
2022-09-22T01:52:39.812Z,98883.84
2022-09-22T01:55:15.339Z,98889.88
2022-09-22T01:57:55.605Z,98883.84
2022-09-22T02:00:25.953Z,98893.97
2022-09-22T02:03:17.131Z,98891.50
2022-09-22T02:06:01.790Z,98875.66
2022-09-22T02:09:07.506Z,98885.78
2022-09-22T02:11:34.307Z,98882.00
2022-09-22T02:14:04.220Z,98883.66
2022-09-22T02:16:32.690Z,98891.19
2022-09-22T02:19:13.472Z,98892.50
2022-09-22T02:21:44.736Z,98889.22
2022-09-22T02:24:37.672Z,98897.53
2022-09-22T02:27:25.511Z,98902.75
2022-09-22T02:30:00.872Z,98892.31
2022-09-22T02:32:30.417Z,98893.78
2022-09-22T02:34:58.252Z,98900.13
2022-09-22T02:38:03.487Z,98885.47
2022-09-22T02:40:58.434Z,98887.72
2022-09-22T02:43:59.797Z,98890.31
2022-09-22T02:46:39.692Z,98890.78
2022-09-22T02:49:18.405Z,98871.44
2022-09-22T02:51:59.872Z,98878.78
2022-09-22T02:54:26.698Z,98884.34
2022-09-22T02:56:54.376Z,98872.00
2022-09-22T02:59:21.563Z,98871.19
2022-09-22T03:01:49.763Z,98861.69
2022-09-22T03:04:18.634Z,98878.72
2022-09-22T03:06:45.333Z,98882.28
2022-09-22T03:09:12.065Z,98867.94
2022-09-22T03:11:39.205Z,98874.97
2022-09-22T03:14:07.958Z,98889.50
2022-09-22T03:16:34.694Z,98881.19
2022-09-22T03:19:03.502Z,98885.84
2022-09-22T03:21:30.254Z,98877.31
2022-09-22T03:23:56.923Z,98868.31
2022-09-22T03:26:23.698Z,98873.25
2022-09-22T03:28:50.434Z,98863.91
2022-09-22T03:31:17.147Z,98857.53
2022-09-22T03:33:43.932Z,98874.78
2022-09-22T03:36:10.547Z,98856.22
2022-09-22T03:38:37.181Z,98867.38
2022-09-22T03:41:04.303Z,98867.38
2022-09-22T03:43:31.011Z,98862.50
2022-09-22T03:46:02.910Z,98879.38
2022-09-22T03:48:31.172Z,98873.59
2022-09-22T03:51:09.142Z,98853.38
2022-09-22T03:53:36.951Z,98869.69
2022-09-22T03:56:16.888Z,98876.91
2022-09-22T03:58:44.409Z,98867.78
2022-09-22T04:01:12.203Z,98869.41
2022-09-22T04:03:39.871Z,98879.75
2022-09-22T04:06:08.937Z,98869.66
2022-09-22T04:08:36.558Z,98853.59
2022-09-22T04:11:04.590Z,98869.66
2022-09-22T04:13:31.272Z,98869.66
2022-09-22T04:15:57.947Z,98867.50
2022-09-22T04:18:25.949Z,98862.38
2022-09-22T04:20:57.863Z,98856.88
2022-09-22T04:23:28.255Z,98868.91
2022-09-22T04:25:55.145Z,98849.78
2022-09-22T04:28:22.073Z,98871.34
2022-09-22T04:30:49.377Z,98856.50
2022-09-22T04:33:16.770Z,98850.84
2022-09-22T04:35:43.495Z,98864.97
2022-09-22T04:38:10.770Z,98862.69
2022-09-22T04:40:37.977Z,98864.00
2022-09-22T04:43:04.705Z,98873.22
2022-09-22T04:45:33.141Z,98879.47
2022-09-22T04:48:03.041Z,98873.22
2022-09-22T04:50:29.660Z,98847.94
2022-09-22T04:52:57.263Z,98871.56
2022-09-22T04:55:25.528Z,98846.66
2022-09-22T04:57:57.273Z,98844.53
2022-09-22T05:00:27.570Z,98859.69
2022-09-22T05:02:55.118Z,98873.44
2022-09-22T05:05:24.499Z,98854.56
2022-09-22T05:07:55.029Z,98874.75
2022-09-22T05:10:25.363Z,98861.31
2022-09-22T05:12:53.610Z,98853.81
2022-09-22T05:15:22.530Z,98878.50
2022-09-22T05:17:53.086Z,98859.28
2022-09-22T05:20:22.627Z,98854.47
2022-09-22T05:22:49.783Z,98871.75
2022-09-22T05:25:19.530Z,98874.22
2022-09-22T05:27:54.401Z,98874.09
2022-09-22T05:30:25.713Z,98878.94
2022-09-22T05:32:54.712Z,98868.91
2022-09-22T05:35:24.637Z,98885.13
2022-09-22T05:37:53.267Z,98875.38
2022-09-22T05:40:23.753Z,98879.81
2022-09-22T05:42:52.358Z,98877.38
2022-09-22T05:45:21.712Z,98891.81
2022-09-22T05:47:48.415Z,98888.75
2022-09-22T05:50:17.975Z,98892.25
2022-09-22T05:52:44.808Z,98889.75
2022-09-22T05:55:13.327Z,98890.63
2022-09-22T05:57:40.228Z,98891.28
2022-09-22T06:00:08.836Z,98879.53
2022-09-22T06:02:35.655Z,98894.94
2022-09-22T06:05:02.468Z,98882.41
2022-09-22T06:07:29.224Z,98874.75
2022-09-22T06:09:55.828Z,98875.28
2022-09-22T06:12:22.463Z,98900.13
2022-09-22T06:14:49.039Z,98899.53
2022-09-22T06:17:15.656Z,98885.47
2022-09-22T06:19:43.158Z,98898.53
2022-09-22T06:22:11.232Z,98899.25
2022-09-22T06:24:38.050Z,98897.00
2022-09-22T06:27:05.057Z,98888.84
2022-09-22T06:29:31.754Z,98905.19
2022-09-22T06:31:58.816Z,98874.56
2022-09-22T06:34:27.146Z,98895.50
2022-09-22T06:36:57.341Z,98895.53
2022-09-22T06:39:26.224Z,98883.28
2022-09-22T06:41:56.624Z,98898.84
2022-09-22T06:44:23.364Z,98889.41
2022-09-22T06:46:49.951Z,98890.72
2022-09-22T06:49:16.559Z,98875.75
2022-09-22T06:51:47.424Z,98887.88
2022-09-22T06:54:14.470Z,98889.50
2022-09-22T06:56:42.738Z,98878.44
2022-09-22T06:59:12.810Z,98896.72
2022-09-22T07:01:42.095Z,98887.56
2022-09-22T07:04:10.540Z,98889.84
2022-09-22T07:06:39.656Z,98905.50
2022-09-22T07:09:11.447Z,98899.31
2022-09-22T07:11:41.199Z,98889.84
2022-09-22T07:14:08.854Z,98902.22
2022-09-22T07:16:36.448Z,98897.16
2022-09-22T07:19:05.803Z,98891.72
2022-09-22T07:21:36.442Z,98890.50
2022-09-22T07:24:05.611Z,98893.19
2022-09-22T07:26:38.496Z,98880.41
2022-09-22T07:29:11.817Z,98870.41
2022-09-22T07:31:40.474Z,98886.84
2022-09-22T07:34:07.264Z,98884.28
2022-09-22T07:36:36.906Z,98875.16
2022-09-22T07:39:11.120Z,98898.84
2022-09-22T07:41:46.859Z,98883.19
2022-09-22T07:44:33.893Z,98894.81
2022-09-22T07:47:02.371Z,98893.66
2022-09-22T07:49:29.851Z,98882.97
2022-09-22T07:51:59.117Z,98870.69
2022-09-22T07:54:27.646Z,98887.41
2022-09-22T07:57:02.250Z,98883.41
2022-09-22T07:59:28.957Z,98869.09
2022-09-22T08:01:55.976Z,98871.28
2022-09-22T08:04:23.811Z,98859.34
2022-09-22T08:06:55.329Z,98888.22
2022-09-22T08:09:26.316Z,98880.50
2022-09-22T08:11:53.636Z,98869.28
2022-09-22T08:14:23.465Z,98878.75
2022-09-22T08:16:51.622Z,98875.06
2022-09-22T08:19:18.673Z,98878.31
2022-09-22T08:21:49.981Z,98874.09
2022-09-22T08:24:22.856Z,98868.09
2022-09-22T08:26:52.655Z,98874.22
2022-09-22T08:29:20.568Z,98879.75
2022-09-22T08:31:48.101Z,98882.19
2022-09-22T08:34:18.526Z,98880.22
2022-09-22T08:36:47.213Z,98860.59
2022-09-22T08:39:15.634Z,98880.22
2022-09-22T08:41:48.070Z,98877.56
2022-09-22T08:44:23.834Z,98875.19
2022-09-22T08:46:53.602Z,98875.91
2022-09-22T08:49:54.054Z,98876.41
2022-09-22T08:52:40.028Z,98870.31
2022-09-22T08:55:24.581Z,98864.50
2022-09-22T08:58:09.087Z,98869.53
2022-09-22T09:01:20.733Z,98876.09
2022-09-22T09:04:27.220Z,98881.41
2022-09-22T09:07:15.546Z,98872.63
2022-09-22T09:10:20.438Z,98878.31
2022-09-22T09:13:08.570Z,98879.19
2022-09-22T09:15:54.142Z,98870.25
2022-09-22T09:18:32.246Z,98875.56
2022-09-22T09:21:05.519Z,98876.81
2022-09-22T09:26:35.456Z,98863.03
2022-09-22T09:29:08.371Z,98864.06
2022-09-22T09:31:53.280Z,98869.09
2022-09-22T09:34:26.813Z,98870.91
2022-09-22T09:37:07.699Z,98861.78
2022-09-22T09:39:39.005Z,98865.44
2022-09-22T09:42:20.120Z,98861.78
2022-09-22T09:44:53.665Z,98865.41
2022-09-22T09:47:43.086Z,98865.19
2022-09-22T09:50:13.408Z,98868.19
2022-09-22T09:52:40.169Z,98858.63
2022-09-22T09:55:27.262Z,98850.69
2022-09-22T09:58:06.643Z,98855.72
2022-09-22T10:00:52.747Z,98857.59
2022-09-22T10:03:41.094Z,98847.69
2022-09-22T10:06:10.975Z,98862.50
2022-09-22T10:08:49.221Z,98846.28
2022-09-22T10:11:15.969Z,98841.81
2022-09-22T10:13:44.218Z,98841.72
2022-09-22T10:16:26.965Z,98845.94
2022-09-22T10:18:59.472Z,98840.09
2022-09-22T10:21:28.113Z,98836.78
2022-09-22T10:24:00.617Z,98828.41
2022-09-22T10:26:29.322Z,98831.19
2022-09-22T10:29:18.485Z,98820.47
2022-09-22T10:32:17.034Z,98818.09
2022-09-22T10:34:51.741Z,98815.72
2022-09-22T10:37:27.736Z,98817.97
2022-09-22T10:40:01.821Z,98807.25
2022-09-22T10:42:45.376Z,98809.81
2022-09-22T10:45:15.595Z,98801.34
2022-09-22T10:48:08.955Z,98818.69
2022-09-22T10:50:50.221Z,98811.78
2022-09-22T10:53:32.322Z,98811.50
2022-09-22T10:56:06.364Z,98803.19
2022-09-22T10:59:16.110Z,98798.69
2022-09-22T11:02:19.080Z,98800.03
2022-09-22T11:06:03.840Z,98787.72
2022-09-22T11:09:09.042Z,98787.94
2022-09-22T11:12:22.432Z,98804.22
2022-09-22T11:15:34.028Z,98793.25
2022-09-22T11:18:23.077Z,98791.50
2022-09-22T11:21:08.750Z,98784.56
2022-09-22T11:23:59.184Z,98794.59
2022-09-22T11:26:48.097Z,98795.53
2022-09-22T11:29:59.291Z,98784.09
2022-09-22T11:32:41.921Z,98788.34
2022-09-22T11:35:44.161Z,98767.47
2022-09-22T11:38:53.972Z,98782.13
2022-09-22T11:41:54.779Z,98770.81
2022-09-22T11:44:28.797Z,98765.41
2022-09-22T11:47:26.103Z,98768.91
2022-09-22T11:50:26.198Z,98761.97
2022-09-22T11:53:27.638Z,98752.78
2022-09-22T11:56:42.311Z,98764.16
2022-09-22T11:59:52.987Z,98751.31
2022-09-22T12:02:41.190Z,98749.03
2022-09-22T12:05:22.884Z,98745.91
2022-09-22T12:07:59.163Z,98755.56
2022-09-22T12:10:42.623Z,98749.34
2022-09-22T12:13:28.338Z,98738.19
2022-09-22T12:16:10.536Z,98739.63
2022-09-22T12:18:53.141Z,98737.56
2022-09-22T12:21:37.923Z,98735.72
2022-09-22T12:24:09.987Z,98730.53
2022-09-22T12:26:41.106Z,98719.00
2022-09-22T12:29:27.196Z,98727.78
2022-09-22T12:31:58.897Z,98727.47
2022-09-22T12:34:39.864Z,98721.53
2022-09-22T12:37:13.274Z,98726.34
2022-09-22T12:39:49.913Z,98707.69
2022-09-22T12:42:36.018Z,98714.81
2022-09-22T12:45:41.063Z,98722.50
2022-09-22T12:48:25.657Z,98720.69
2022-09-22T12:51:31.306Z,98712.66
2022-09-22T12:54:22.412Z,98717.13
2022-09-22T12:57:10.675Z,98715.63
2022-09-22T12:59:40.149Z,98713.94
2022-09-22T13:02:16.012Z,98706.66
2022-09-22T13:05:04.320Z,98701.63
2022-09-22T13:07:44.363Z,98711.28
2022-09-22T13:10:23.240Z,98706.19
2022-09-22T13:13:05.651Z,98702.66
2022-09-22T13:15:47.217Z,98698.63
2022-09-22T13:18:35.704Z,98685.66
2022-09-22T13:21:13.271Z,98689.25
2022-09-22T13:24:00.205Z,98677.63
2022-09-22T13:26:33.457Z,98684.19
2022-09-22T13:29:19.166Z,98676.22
2022-09-22T13:31:48.461Z,98675.78
2022-09-22T13:34:34.335Z,98684.09
2022-09-22T13:37:13.926Z,98664.00
2022-09-22T13:39:49.865Z,98672.31
2022-09-22T13:42:32.352Z,98660.53
2022-09-22T13:45:07.767Z,98672.78
2022-09-22T13:47:35.922Z,98661.31
2022-09-22T13:50:08.562Z,98668.38
2022-09-22T13:52:39.337Z,98664.44
2022-09-22T13:55:14.950Z,98633.44
2022-09-22T13:57:42.858Z,98657.34
2022-09-22T14:00:27.009Z,98641.75
2022-09-22T14:02:57.779Z,98626.94
2022-09-22T14:05:35.102Z,98644.19
2022-09-22T14:08:13.019Z,98642.91
2022-09-22T14:10:43.425Z,98636.38
2022-09-22T14:13:59.163Z,98642.03
2022-09-22T14:16:42.566Z,98646.44
2022-09-22T14:19:23.386Z,98629.34
2022-09-22T14:21:59.884Z,98631.25
2022-09-22T14:24:34.755Z,98622.28
2022-09-22T14:27:07.311Z,98623.63
2022-09-22T14:29:40.883Z,98627.22
2022-09-22T14:32:22.666Z,98633.75
2022-09-22T14:34:56.815Z,98632.88
2022-09-22T14:37:36.440Z,98629.16
2022-09-22T14:40:14.331Z,98624.78
2022-09-22T14:42:41.453Z,98617.16
2022-09-22T14:45:08.434Z,98613.94
2022-09-22T14:47:42.805Z,98620.13
2022-09-22T14:50:27.720Z,98621.03
2022-09-22T14:53:13.779Z,98594.41
2022-09-22T14:55:50.431Z,98596.38
2022-09-22T14:58:27.257Z,98603.38
2022-09-22T15:01:22.815Z,98595.88
2022-09-22T15:04:17.251Z,98607.91
2022-09-22T15:06:48.881Z,98599.44
2022-09-22T15:09:29.273Z,98597.50
2022-09-22T15:12:02.110Z,98607.91
2022-09-22T15:14:35.133Z,98593.84
2022-09-22T15:17:23.505Z,98595.03
2022-09-22T15:19:57.099Z,98584.25
2022-09-22T15:22:27.556Z,98599.94
2022-09-22T15:24:57.722Z,98592.06
2022-09-22T15:27:27.163Z,98585.34
2022-09-22T15:29:56.055Z,98586.03
2022-09-22T15:32:22.801Z,98588.53
2022-09-22T15:34:50.439Z,98591.06
2022-09-22T15:37:22.327Z,98576.81
2022-09-22T15:39:49.562Z,98584.41
2022-09-22T15:42:16.356Z,98582.19
2022-09-22T15:44:44.150Z,98596.50
2022-09-22T15:47:17.053Z,98580.47
2022-09-22T15:49:45.081Z,98582.13
2022-09-22T15:52:11.938Z,98597.25
2022-09-22T15:54:38.618Z,98586.44
2022-09-22T15:57:09.953Z,98575.25
2022-09-22T15:59:36.948Z,98589.06
2022-09-22T16:02:11.234Z,98566.44
2022-09-22T16:04:37.923Z,98579.81
2022-09-22T16:07:12.413Z,98591.00
2022-09-22T16:09:39.283Z,98589.19
2022-09-22T16:12:10.900Z,98590.28
2022-09-22T16:14:39.706Z,98577.53
2022-09-22T16:17:07.747Z,98585.88
2022-09-22T16:19:35.182Z,98569.50
2022-09-22T16:22:02.735Z,98557.91
2022-09-22T16:24:30.150Z,98550.97
2022-09-22T16:26:56.832Z,98551.28
2022-09-22T16:29:25.046Z,98568.75
2022-09-22T16:31:51.791Z,98576.59
2022-09-22T16:34:21.282Z,98551.78
2022-09-22T16:36:47.927Z,98544.88
2022-09-22T16:39:14.531Z,98562.75
2022-09-22T16:41:46.670Z,98561.91
2022-09-22T16:44:13.764Z,98566.53
2022-09-22T16:46:40.365Z,98566.06
2022-09-22T16:49:12.824Z,98563.94
2022-09-22T16:51:48.300Z,98570.03
2022-09-22T16:54:16.330Z,98585.13
2022-09-22T16:56:51.018Z,98547.81
2022-09-22T16:59:21.529Z,98569.09
2022-09-22T17:01:49.965Z,98559.88
2022-09-22T17:04:21.191Z,98567.22
2022-09-22T17:06:49.894Z,98573.03
2022-09-22T17:09:17.524Z,98572.47
2022-09-22T17:11:48.565Z,98545.75
2022-09-22T17:14:22.037Z,98571.28
2022-09-22T17:16:56.504Z,98579.34
2022-09-22T17:19:26.635Z,98575.78
2022-09-22T17:21:56.120Z,98576.78
2022-09-22T17:24:25.614Z,98577.88
2022-09-22T17:26:56.400Z,98568.50
2022-09-22T17:29:26.720Z,98576.91
2022-09-22T17:31:57.395Z,98565.84
2022-09-22T17:34:28.444Z,98583.78
2022-09-22T17:36:56.475Z,98563.25
2022-09-22T17:39:24.140Z,98575.88
2022-09-22T17:41:51.218Z,98569.25
2022-09-22T17:44:21.453Z,98586.94
2022-09-22T17:47:09.680Z,98580.91
2022-09-22T17:49:56.622Z,98569.63
2022-09-22T17:52:33.113Z,98580.22
2022-09-22T17:55:08.024Z,98586.34
2022-09-22T17:57:41.813Z,98574.47
2022-09-22T18:00:20.898Z,98592.50
2022-09-22T18:02:49.913Z,98574.72
2022-09-22T18:05:22.155Z,98573.53
2022-09-22T18:07:53.535Z,98584.91
2022-09-22T18:10:20.835Z,98580.69
2022-09-22T18:12:47.463Z,98575.91
2022-09-22T18:15:15.018Z,98587.84
2022-09-22T18:17:43.529Z,98579.97
2022-09-22T18:20:14.488Z,98589.13
2022-09-22T18:22:42.559Z,98586.72
2022-09-22T18:25:10.497Z,98578.69
2022-09-22T18:27:38.166Z,98581.97
2022-09-22T18:30:06.232Z,98587.88
2022-09-22T18:32:34.832Z,98590.34
2022-09-22T18:35:05.384Z,98587.72
2022-09-22T18:37:32.567Z,98575.34
2022-09-22T18:40:01.590Z,98592.19
2022-09-22T18:42:31.021Z,98591.78
2022-09-22T18:44:57.647Z,98597.03
2022-09-22T18:47:24.846Z,98586.31
2022-09-22T18:49:53.785Z,98600.28
2022-09-22T18:52:24.516Z,98607.97
2022-09-22T18:54:54.497Z,98611.63
2022-09-22T18:57:25.399Z,98594.41
2022-09-22T18:59:57.691Z,98589.72
2022-09-22T19:02:24.863Z,98607.72
2022-09-22T19:04:51.689Z,98601.41
2022-09-22T19:07:41.411Z,98597.75
2022-09-22T19:10:12.823Z,98611.91
2022-09-22T19:12:39.995Z,98592.44
2022-09-22T19:15:13.902Z,98589.78
2022-09-22T19:17:46.551Z,98603.31
2022-09-22T19:20:23.246Z,98601.69
2022-09-22T19:22:52.246Z,98595.00
2022-09-22T19:25:21.385Z,98597.78
2022-09-22T19:27:54.040Z,98607.28
2022-09-22T19:30:25.792Z,98608.94
2022-09-22T19:32:55.184Z,98607.19
2022-09-22T19:35:22.060Z,98607.19
2022-09-22T19:37:51.575Z,98593.81
2022-09-22T19:40:25.584Z,98597.91
2022-09-22T19:42:53.502Z,98604.31
2022-09-22T19:45:23.822Z,98603.69
2022-09-22T19:47:51.314Z,98597.78
2022-09-22T19:50:19.144Z,98609.50
2022-09-22T19:52:46.141Z,98608.06
2022-09-22T19:55:13.157Z,98602.56
2022-09-22T19:57:43.582Z,98613.88
2022-09-22T20:00:25.799Z,98604.50
2022-09-22T20:03:00.963Z,98604.75
2022-09-22T20:05:36.831Z,98603.75
2022-09-22T20:08:17.936Z,98592.84
2022-09-22T20:10:48.228Z,98604.16
2022-09-22T20:13:33.903Z,98584.03
2022-09-22T20:16:01.900Z,98597.75
2022-09-22T20:18:29.885Z,98599.13
2022-09-22T20:20:57.332Z,98594.28
2022-09-22T20:23:24.129Z,98613.88
2022-09-22T20:25:52.067Z,98605.09
2022-09-22T20:28:19.426Z,98612.78
2022-09-22T20:30:46.113Z,98577.13
2022-09-22T20:33:22.550Z,98601.25
2022-09-22T20:35:52.466Z,98588.50
2022-09-22T20:38:19.707Z,98584.91
2022-09-22T20:40:48.511Z,98593.78
2022-09-22T20:43:16.443Z,98588.50
2022-09-22T20:45:44.444Z,98605.94
2022-09-22T20:48:19.165Z,98595.03
2022-09-22T20:50:58.134Z,98599.22
2022-09-22T20:53:24.962Z,98589.66
2022-09-22T20:56:03.242Z,98607.16
2022-09-22T20:58:32.759Z,98602.00
2022-09-22T21:01:04.068Z,98603.06
2022-09-22T21:03:31.020Z,98606.09
2022-09-22T21:06:02.630Z,98607.56
2022-09-22T21:08:48.525Z,98594.53
2022-09-22T21:11:18.399Z,98599.69
2022-09-22T21:13:45.922Z,98598.03
2022-09-22T21:16:13.890Z,98587.81
2022-09-22T21:18:40.763Z,98597.66
2022-09-22T21:21:08.218Z,98595.09
2022-09-22T21:23:35.312Z,98604.47
2022-09-22T21:26:07.713Z,98603.81
2022-09-22T21:28:34.263Z,98603.03
2022-09-22T21:31:05.193Z,98610.56
2022-09-22T21:33:35.107Z,98604.84
2022-09-22T21:36:14.814Z,98610.09
2022-09-22T21:38:50.286Z,98602.19
2022-09-22T21:41:20.716Z,98603.25
2022-09-22T21:43:49.834Z,98587.19
2022-09-22T21:46:20.124Z,98602.72
2022-09-22T21:48:47.614Z,98582.69
2022-09-22T21:51:22.283Z,98579.53
2022-09-22T21:53:54.496Z,98591.16
2022-09-22T21:56:25.225Z,98595.59
2022-09-22T21:58:55.129Z,98561.09
2022-09-22T22:01:25.184Z,98590.75
2022-09-22T22:03:55.380Z,98583.69
2022-09-22T22:06:24.077Z,98568.28
2022-09-22T22:09:22.481Z,98580.84
2022-09-22T22:11:57.460Z,98585.81
2022-09-22T22:14:32.502Z,98567.75
2022-09-22T22:17:01.160Z,98570.44
2022-09-22T22:19:27.800Z,98572.09
2022-09-22T22:21:54.692Z,98556.38
2022-09-22T22:24:28.648Z,98573.66
2022-09-22T22:27:07.670Z,98551.25
2022-09-22T22:29:34.931Z,98566.66
2022-09-22T22:32:07.282Z,98574.38
2022-09-22T22:34:34.906Z,98559.75
2022-09-22T22:37:01.842Z,98569.59
2022-09-22T22:39:29.800Z,98578.44
2022-09-22T22:41:56.407Z,98567.16
2022-09-22T22:44:23.209Z,98558.50
2022-09-22T22:46:50.522Z,98562.91
2022-09-22T22:49:17.252Z,98558.75
2022-09-22T22:51:44.012Z,98562.47
2022-09-22T22:54:13.519Z,98567.41
2022-09-22T22:56:42.470Z,98561.56
2022-09-22T22:59:11.149Z,98577.44
2022-09-22T23:01:40.251Z,98562.38
2022-09-22T23:04:10.760Z,98564.63
2022-09-22T23:06:41.731Z,98563.28
2022-09-22T23:09:13.841Z,98563.91
2022-09-22T23:11:42.271Z,98562.66
2022-09-22T23:14:11.835Z,98571.47
2022-09-22T23:16:45.964Z,98546.75
2022-09-22T23:19:16.914Z,98538.38
2022-09-22T23:21:45.228Z,98550.38
2022-09-22T23:24:18.927Z,98554.06
2022-09-22T23:26:46.393Z,98556.25
2022-09-22T23:29:13.692Z,98561.56
2022-09-22T23:31:40.280Z,98550.81
2022-09-22T23:34:06.843Z,98540.34
2022-09-22T23:36:33.385Z,98547.19
2022-09-22T23:39:05.376Z,98548.84
2022-09-22T23:41:36.163Z,98542.34
2022-09-22T23:44:07.159Z,98544.34
2022-09-22T23:46:34.199Z,98549.81
2022-09-22T23:49:01.201Z,98548.63
2022-09-22T23:51:28.379Z,98540.34
2022-09-22T23:53:56.246Z,98522.75
2022-09-22T23:56:23.467Z,98532.03
2022-09-22T23:58:51.906Z,98537.91
